Bangor International Airport Bangor US
ICAO: KBGR
IATA: BGR
Category: Large
Scheduled Services: Yes

Elevation: 192 ft
TransAlt. 18000 ft.

Airport Communications:
APP/DEP:118.925
ASOS:127.75
ATIS:127.75
CLNC DEL:135.9
GND:121.9
ARNG OPS:41.2
ANG OPS:31.1
RDO:122.2
TWR:120.7
UNICOM:122.95

KBGR Zoom In..

If you have problems with the map follow the link
https://www.worldairports.se/pages/airport.php?
ICAO=KBGR

Runways:

(A) RW 15 length 11440 ft width 200 ft
ILS 109.50 / hdg 153

(B) RW 33 length 11440 ft width 200 ft
ILS 109.50 / hdg 333

Location; KBGR
Day. 14 / Time. 10.53 Zulu
* Altimeter: 29.95
* Temperature: -06° c. -21.2°f.
* Wind from: 290° Speed 18 kn with Gusts up to 29 kn.
Dewpoint: -16° c.
Visibility: 10 Statute Miles.
Clouds: Few 4000 ft.
Clouds: Few 15000 ft.

KBGR 141053Z 29018G29KT 10SM FEW040 FEW150 M06/M16 A2995 RMK AO2 PK WND 27031/0955 SLP144 T10611156 $


Wind From 290°
Speed 18 kn.

 
 
jpsmedia.com for Web Design worldairports.se 2018   terms of use